sensor_id;sensor_type;location;lat;lon;timestamp;P1;durP1;ratioP1;P2;durP2;ratioP2
52798;SDS011;38667;42.872;74.622;2023-08-08T00:00:33;10.57;;;3.38;;
52798;SDS011;38667;42.872;74.622;2023-08-08T00:03:00;5.63;;;3.17;;
52798;SDS011;38667;42.872;74.622;2023-08-08T00:05:26;9.13;;;3.78;;
52798;SDS011;38667;42.872;74.622;2023-08-08T00:07:52;6.50;;;3.13;;
52798;SDS011;38667;42.872;74.622;2023-08-08T00:10:20;9.48;;;3.33;;
52798;SDS011;38667;42.872;74.622;2023-08-08T00:12:46;7.25;;;3.47;;
52798;SDS011;38667;42.872;74.622;2023-08-08T00:15:13;7.50;;;3.75;;
52798;SDS011;38667;42.872;74.622;2023-08-08T00:17:39;6.07;;;3.35;;
52798;SDS011;38667;42.872;74.622;2023-08-08T00:20:06;6.70;;;3.15;;
52798;SDS011;38667;42.872;74.622;2023-08-08T00:22:33;9.82;;;3.90;;
52798;SDS011;38667;42.872;74.622;2023-08-08T00:24:59;9.18;;;3.45;;
52798;SDS011;38667;42.872;74.622;2023-08-08T00:27:27;5.95;;;3.75;;
52798;SDS011;38667;42.872;74.622;2023-08-08T00:29:53;6.88;;;3.20;;
52798;SDS011;38667;42.872;74.622;2023-08-08T00:32:20;6.60;;;4.40;;
52798;SDS011;38667;42.872;74.622;2023-08-08T00:34:46;9.45;;;4.10;;
52798;SDS011;38667;42.872;74.622;2023-08-08T00:37:12;7.68;;;4.53;;
52798;SDS011;38667;42.872;74.622;2023-08-08T00:39:38;9.60;;;4.47;;
52798;SDS011;38667;42.872;74.622;2023-08-08T00:42:05;7.18;;;4.80;;
52798;SDS011;38667;42.872;74.622;2023-08-08T00:44:33;12.30;;;5.30;;
52798;SDS011;38667;42.872;74.622;2023-08-08T00:46:59;9.32;;;5.53;;
52798;SDS011;38667;42.872;74.622;2023-08-08T00:49:26;13.85;;;5.88;;
52798;SDS011;38667;42.872;74.622;2023-08-08T00:51:52;10.07;;;6.32;;
52798;SDS011;38667;42.872;74.622;2023-08-08T00:54:19;11.88;;;7.90;;
52798;SDS011;38667;42.872;74.622;2023-08-08T00:56:45;19.38;;;10.65;;
52798;SDS011;38667;42.872;74.622;2023-08-08T00:59:12;14.43;;;8.52;;
52798;SDS011;38667;42.872;74.622;2023-08-08T01:01:42;17.17;;;9.98;;
52798;SDS011;38667;42.872;74.622;2023-08-08T01:04:09;15.43;;;9.82;;
52798;SDS011;38667;42.872;74.622;2023-08-08T01:06:36;18.23;;;12.10;;
52798;SDS011;38667;42.872;74.622;2023-08-08T01:09:08;16.30;;;10.40;;
52798;SDS011;38667;42.872;74.622;2023-08-08T01:11:38;15.90;;;10.40;;
52798;SDS011;38667;42.872;74.622;2023-08-08T01:14:05;16.60;;;9.70;;
52798;SDS011;38667;42.872;74.622;2023-08-08T01:16:33;15.07;;;9.18;;
52798;SDS011;38667;42.872;74.622;2023-08-08T01:19:01;13.10;;;8.57;;
52798;SDS011;38667;42.872;74.622;2023-08-08T01:21:29;15.77;;;7.72;;
52798;SDS011;38667;42.872;74.622;2023-08-08T01:24:00;12.20;;;7.53;;
52798;SDS011;38667;42.872;74.622;2023-08-08T01:26:33;9.07;;;5.95;;
52798;SDS011;38667;42.872;74.622;2023-08-08T01:29:00;8.82;;;4.95;;
52798;SDS011;38667;42.872;74.622;2023-08-08T01:31:26;8.70;;;5.45;;
52798;SDS011;38667;42.872;74.622;2023-08-08T01:33:53;11.15;;;4.88;;
52798;SDS011;38667;42.872;74.622;2023-08-08T01:36:20;10.10;;;3.95;;
52798;SDS011;38667;42.872;74.622;2023-08-08T01:38:52;6.80;;;3.40;;
52798;SDS011;38667;42.872;74.622;2023-08-08T01:41:24;7.43;;;3.05;;
52798;SDS011;38667;42.872;74.622;2023-08-08T01:43:52;7.78;;;2.33;;
52798;SDS011;38667;42.872;74.622;2023-08-08T01:46:19;7.95;;;2.22;;
52798;SDS011;38667;42.872;74.622;2023-08-08T01:48:46;3.03;;;2.20;;
52798;SDS011;38667;42.872;74.622;2023-08-08T01:51:12;5.55;;;2.22;;
52798;SDS011;38667;42.872;74.622;2023-08-08T01:53:38;3.22;;;1.67;;
52798;SDS011;38667;42.872;74.622;2023-08-08T01:56:04;6.50;;;2.10;;
52798;SDS011;38667;42.872;74.622;2023-08-08T01:58:32;7.97;;;2.10;;
52798;SDS011;38667;42.872;74.622;2023-08-08T02:01:00;2.80;;;1.85;;
52798;SDS011;38667;42.872;74.622;2023-08-08T02:03:26;3.10;;;1.77;;
52798;SDS011;38667;42.872;74.622;2023-08-08T02:05:52;2.20;;;1.73;;
52798;SDS011;38667;42.872;74.622;2023-08-08T02:08:19;8.85;;;2.40;;
52798;SDS011;38667;42.872;74.622;2023-08-08T02:10:45;7.03;;;2.60;;
52798;SDS011;38667;42.872;74.622;2023-08-08T02:13:11;5.93;;;2.15;;
52798;SDS011;38667;42.872;74.622;2023-08-08T02:15:38;8.85;;;2.63;;
52798;SDS011;38667;42.872;74.622;2023-08-08T02:18:06;3.83;;;1.85;;
52798;SDS011;38667;42.872;74.622;2023-08-08T02:20:32;5.38;;;2.38;;
52798;SDS011;38667;42.872;74.622;2023-08-08T02:22:59;4.32;;;2.40;;
52798;SDS011;38667;42.872;74.622;2023-08-08T02:25:25;7.22;;;1.92;;
52798;SDS011;38667;42.872;74.622;2023-08-08T02:27:51;4.70;;;1.73;;
52798;SDS011;38667;42.872;74.622;2023-08-08T02:30:18;11.88;;;2.40;;
52798;SDS011;38667;42.872;74.622;2023-08-08T02:32:44;5.03;;;1.95;;
52798;SDS011;38667;42.872;74.622;2023-08-08T02:35:12;2.92;;;1.70;;
52798;SDS011;38667;42.872;74.622;2023-08-08T02:37:38;6.47;;;1.70;;
52798;SDS011;38667;42.872;74.622;2023-08-08T02:40:05;8.85;;;2.05;;
52798;SDS011;38667;42.872;74.622;2023-08-08T02:42:32;4.18;;;1.90;;
52798;SDS011;38667;42.872;74.622;2023-08-08T02:44:59;4.63;;;1.88;;
52798;SDS011;38667;42.872;74.622;2023-08-08T02:47:25;7.03;;;1.90;;
52798;SDS011;38667;42.872;74.622;2023-08-08T02:49:51;6.05;;;1.95;;
52798;SDS011;38667;42.872;74.622;2023-08-08T02:52:19;5.85;;;2.22;;
52798;SDS011;38667;42.872;74.622;2023-08-08T02:54:45;3.60;;;1.90;;
52798;SDS011;38667;42.872;74.622;2023-08-08T02:57:12;7.85;;;1.80;;
52798;SDS011;38667;42.872;74.622;2023-08-08T02:59:39;4.60;;;2.08;;
52798;SDS011;38667;42.872;74.622;2023-08-08T03:02:05;8.23;;;2.03;;
52798;SDS011;38667;42.872;74.622;2023-08-08T03:04:31;7.47;;;2.20;;
52798;SDS011;38667;42.872;74.622;2023-08-08T03:06:58;8.32;;;2.20;;
52798;SDS011;38667;42.872;74.622;2023-08-08T03:09:26;5.80;;;2.63;;
52798;SDS011;38667;42.872;74.622;2023-08-08T03:11:52;9.80;;;2.90;;
52798;SDS011;38667;42.872;74.622;2023-08-08T03:14:18;9.55;;;3.03;;
52798;SDS011;38667;42.872;74.622;2023-08-08T03:16:44;7.35;;;2.70;;
52798;SDS011;38667;42.872;74.622;2023-08-08T03:19:11;11.10;;;2.78;;
52798;SDS011;38667;42.872;74.622;2023-08-08T03:21:37;5.97;;;2.83;;
52798;SDS011;38667;42.872;74.622;2023-08-08T03:24:04;10.88;;;2.75;;
52798;SDS011;38667;42.872;74.622;2023-08-08T03:26:32;6.50;;;2.65;;
52798;SDS011;38667;42.872;74.622;2023-08-08T03:28:58;6.40;;;2.28;;
52798;SDS011;38667;42.872;74.622;2023-08-08T03:31:25;9.32;;;2.75;;
52798;SDS011;38667;42.872;74.622;2023-08-08T03:33:51;6.25;;;2.33;;
52798;SDS011;38667;42.872;74.622;2023-08-08T03:36:17;9.68;;;2.58;;
52798;SDS011;38667;42.872;74.622;2023-08-08T03:38:44;7.78;;;2.85;;
52798;SDS011;38667;42.872;74.622;2023-08-08T03:41:10;7.90;;;2.88;;
52798;SDS011;38667;42.872;74.622;2023-08-08T03:43:38;7.22;;;2.55;;
52798;SDS011;38667;42.872;74.622;2023-08-08T03:46:04;10.77;;;3.05;;
52798;SDS011;38667;42.872;74.622;2023-08-08T03:48:31;8.00;;;2.65;;
52798;SDS011;38667;42.872;74.622;2023-08-08T03:50:57;6.05;;;2.10;;
52798;SDS011;38667;42.872;74.622;2023-08-08T03:53:23;4.00;;;2.50;;
52798;SDS011;38667;42.872;74.622;2023-08-08T03:55:50;7.00;;;2.60;;
52798;SDS011;38667;42.872;74.622;2023-08-08T03:58:16;7.63;;;3.05;;
52798;SDS011;38667;42.872;74.622;2023-08-08T04:00:44;4.32;;;2.47;;
52798;SDS011;38667;42.872;74.622;2023-08-08T04:03:11;4.63;;;2.38;;
52798;SDS011;38667;42.872;74.622;2023-08-08T04:05:37;5.80;;;2.75;;
52798;SDS011;38667;42.872;74.622;2023-08-08T04:08:04;14.15;;;3.30;;
52798;SDS011;38667;42.872;74.622;2023-08-08T04:10:30;6.10;;;2.85;;
52798;SDS011;38667;42.872;74.622;2023-08-08T04:12:57;6.93;;;3.55;;
52798;SDS011;38667;42.872;74.622;2023-08-08T04:15:23;4.20;;;2.60;;
52798;SDS011;38667;42.872;74.622;2023-08-08T04:17:51;7.30;;;2.70;;
52798;SDS011;38667;42.872;74.622;2023-08-08T04:20:17;5.22;;;2.95;;
52798;SDS011;38667;42.872;74.622;2023-08-08T04:22:44;9.38;;;3.10;;
52798;SDS011;38667;42.872;74.622;2023-08-08T04:25:10;8.75;;;3.10;;
52798;SDS011;38667;42.872;74.622;2023-08-08T04:27:36;7.68;;;2.72;;
52798;SDS011;38667;42.872;74.622;2023-08-08T04:30:03;9.48;;;3.22;;
52798;SDS011;38667;42.872;74.622;2023-08-08T04:32:30;7.13;;;2.90;;
52798;SDS011;38667;42.872;74.622;2023-08-08T04:34:58;6.65;;;2.40;;
52798;SDS011;38667;42.872;74.622;2023-08-08T04:37:24;6.63;;;2.78;;
52798;SDS011;38667;42.872;74.622;2023-08-08T04:39:50;5.93;;;2.53;;
52798;SDS011;38667;42.872;74.622;2023-08-08T04:42:17;8.45;;;2.60;;
52798;SDS011;38667;42.872;74.622;2023-08-08T04:44:43;7.15;;;2.17;;
52798;SDS011;38667;42.872;74.622;2023-08-08T04:47:09;4.60;;;2.53;;
52798;SDS011;38667;42.872;74.622;2023-08-08T04:49:36;5.95;;;2.60;;
52798;SDS011;38667;42.872;74.622;2023-08-08T04:52:04;8.15;;;2.45;;
52798;SDS011;38667;42.872;74.622;2023-08-08T04:54:31;6.38;;;2.80;;
52798;SDS011;38667;42.872;74.622;2023-08-08T04:56:57;4.13;;;2.17;;
52798;SDS011;38667;42.872;74.622;2023-08-08T04:59:23;5.68;;;2.40;;
52798;SDS011;38667;42.872;74.622;2023-08-08T05:01:50;4.55;;;2.10;;
52798;SDS011;38667;42.872;74.622;2023-08-08T05:04:17;3.35;;;2.30;;
52798;SDS011;38667;42.872;74.622;2023-08-08T05:06:43;4.43;;;2.40;;
52798;SDS011;38667;42.872;74.622;2023-08-08T05:09:12;3.03;;;2.00;;
52798;SDS011;38667;42.872;74.622;2023-08-08T05:11:38;8.50;;;2.92;;
52798;SDS011;38667;42.872;74.622;2023-08-08T05:14:04;8.15;;;2.88;;
52798;SDS011;38667;42.872;74.622;2023-08-08T05:16:31;4.18;;;2.92;;
52798;SDS011;38667;42.872;74.622;2023-08-08T05:18:57;5.72;;;3.30;;
52798;SDS011;38667;42.872;74.622;2023-08-08T05:21:23;5.55;;;3.17;;
52798;SDS011;38667;42.872;74.622;2023-08-08T05:23:50;7.05;;;2.70;;
52798;SDS011;38667;42.872;74.622;2023-08-08T05:26:17;5.50;;;2.15;;
52798;SDS011;38667;42.872;74.622;2023-08-08T05:28:44;7.47;;;2.30;;
52798;SDS011;38667;42.872;74.622;2023-08-08T05:31:10;6.55;;;3.00;;
52798;SDS011;38667;42.872;74.622;2023-08-08T05:33:36;6.90;;;2.72;;
52798;SDS011;38667;42.872;74.622;2023-08-08T05:36:03;2.85;;;2.45;;
52798;SDS011;38667;42.872;74.622;2023-08-08T05:38:29;4.70;;;2.33;;
52798;SDS011;38667;42.872;74.622;2023-08-08T05:40:56;4.85;;;1.92;;
52798;SDS011;38667;42.872;74.622;2023-08-08T05:43:24;3.85;;;2.15;;
52798;SDS011;38667;42.872;74.622;2023-08-08T05:45:50;6.50;;;2.40;;
52798;SDS011;38667;42.872;74.622;2023-08-08T05:48:16;5.88;;;2.60;;
52798;SDS011;38667;42.872;74.622;2023-08-08T05:50:43;9.70;;;3.58;;
52798;SDS011;38667;42.872;74.622;2023-08-08T05:53:09;17.23;;;3.10;;
52798;SDS011;38667;42.872;74.622;2023-08-08T05:55:36;8.90;;;3.88;;
52798;SDS011;38667;42.872;74.622;2023-08-08T05:58:02;8.18;;;3.95;;
52798;SDS011;38667;42.872;74.622;2023-08-08T06:00:30;9.10;;;3.70;;
52798;SDS011;38667;42.872;74.622;2023-08-08T06:02:56;11.93;;;3.58;;
52798;SDS011;38667;42.872;74.622;2023-08-08T06:05:23;7.88;;;2.92;;
52798;SDS011;38667;42.872;74.622;2023-08-08T06:07:49;6.07;;;3.00;;
52798;SDS011;38667;42.872;74.622;2023-08-08T06:10:16;6.45;;;2.13;;
52798;SDS011;38667;42.872;74.622;2023-08-08T06:12:42;6.57;;;2.50;;
52798;SDS011;38667;42.872;74.622;2023-08-08T06:15:08;3.53;;;2.20;;
52798;SDS011;38667;42.872;74.622;2023-08-08T06:17:36;5.90;;;2.20;;
52798;SDS011;38667;42.872;74.622;2023-08-08T06:20:03;9.00;;;3.30;;
52798;SDS011;38667;42.872;74.622;2023-08-08T06:22:30;13.10;;;3.17;;
52798;SDS011;38667;42.872;74.622;2023-08-08T06:24:57;5.07;;;2.72;;
52798;SDS011;38667;42.872;74.622;2023-08-08T06:27:23;4.95;;;2.42;;
52798;SDS011;38667;42.872;74.622;2023-08-08T06:29:49;4.88;;;1.98;;
52798;SDS011;38667;42.872;74.622;2023-08-08T06:32:16;3.63;;;2.10;;
52798;SDS011;38667;42.872;74.622;2023-08-08T06:34:43;3.88;;;2.70;;
52798;SDS011;38667;42.872;74.622;2023-08-08T06:37:10;4.88;;;1.92;;
52798;SDS011;38667;42.872;74.622;2023-08-08T06:39:36;4.18;;;2.00;;
52798;SDS011;38667;42.872;74.622;2023-08-08T06:42:03;5.57;;;1.98;;
52798;SDS011;38667;42.872;74.622;2023-08-08T06:44:31;5.75;;;2.28;;
52798;SDS011;38667;42.872;74.622;2023-08-08T06:46:58;7.50;;;1.98;;
52798;SDS011;38667;42.872;74.622;2023-08-08T06:49:24;4.40;;;1.80;;
52798;SDS011;38667;42.872;74.622;2023-08-08T06:51:52;7.82;;;2.00;;
52798;SDS011;38667;42.872;74.622;2023-08-08T06:54:18;4.78;;;1.80;;
52798;SDS011;38667;42.872;74.622;2023-08-08T06:56:45;6.53;;;1.85;;
52798;SDS011;38667;42.872;74.622;2023-08-08T06:59:11;8.40;;;2.03;;
52798;SDS011;38667;42.872;74.622;2023-08-08T07:01:37;1.85;;;1.23;;
52798;SDS011;38667;42.872;74.622;2023-08-08T07:04:04;2.55;;;1.50;;
52798;SDS011;38667;42.872;74.622;2023-08-08T07:06:30;6.00;;;1.30;;
52798;SDS011;38667;42.872;74.622;2023-08-08T07:08:58;2.83;;;1.48;;
52798;SDS011;38667;42.872;74.622;2023-08-08T07:11:24;2.22;;;1.33;;
52798;SDS011;38667;42.872;74.622;2023-08-08T07:13:51;5.43;;;1.92;;
52798;SDS011;38667;42.872;74.622;2023-08-08T07:16:17;3.00;;;1.58;;
52798;SDS011;38667;42.872;74.622;2023-08-08T07:18:43;5.47;;;1.85;;
52798;SDS011;38667;42.872;74.622;2023-08-08T07:21:10;5.55;;;1.92;;
52798;SDS011;38667;42.872;74.622;2023-08-08T07:23:36;4.97;;;1.50;;
52798;SDS011;38667;42.872;74.622;2023-08-08T07:26:04;3.78;;;1.73;;
52798;SDS011;38667;42.872;74.622;2023-08-08T07:28:30;4.60;;;1.90;;
52798;SDS011;38667;42.872;74.622;2023-08-08T07:30:56;2.40;;;1.58;;
52798;SDS011;38667;42.872;74.622;2023-08-08T07:33:23;6.07;;;2.10;;
52798;SDS011;38667;42.872;74.622;2023-08-08T07:35:49;7.18;;;1.80;;
52798;SDS011;38667;42.872;74.622;2023-08-08T07:38:15;6.05;;;2.30;;
52798;SDS011;38667;42.872;74.622;2023-08-08T07:40:42;6.15;;;1.95;;
52798;SDS011;38667;42.872;74.622;2023-08-08T07:43:10;2.70;;;2.08;;
52798;SDS011;38667;42.872;74.622;2023-08-08T07:45:36;4.28;;;2.05;;
52798;SDS011;38667;42.872;74.622;2023-08-08T07:48:02;6.75;;;1.90;;
52798;SDS011;38667;42.872;74.622;2023-08-08T07:50:29;3.60;;;2.15;;
52798;SDS011;38667;42.872;74.622;2023-08-08T07:52:56;5.13;;;2.00;;
52798;SDS011;38667;42.872;74.622;2023-08-08T07:55:22;3.40;;;2.25;;
52798;SDS011;38667;42.872;74.622;2023-08-08T07:57:48;3.00;;;1.75;;
52798;SDS011;38667;42.872;74.622;2023-08-08T08:00:17;3.95;;;1.80;;
52798;SDS011;38667;42.872;74.622;2023-08-08T08:02:44;5.68;;;1.88;;
52798;SDS011;38667;42.872;74.622;2023-08-08T08:05:11;3.38;;;1.50;;
52798;SDS011;38667;42.872;74.622;2023-08-08T08:07:38;2.80;;;1.40;;
52798;SDS011;38667;42.872;74.622;2023-08-08T08:10:05;4.88;;;1.25;;
52798;SDS011;38667;42.872;74.622;2023-08-08T08:12:33;8.25;;;1.20;;
52798;SDS011;38667;42.872;74.622;2023-08-08T08:15:00;4.47;;;1.55;;
52798;SDS011;38667;42.872;74.622;2023-08-08T08:17:28;2.75;;;1.50;;
52798;SDS011;38667;42.872;74.622;2023-08-08T08:19:54;3.80;;;1.30;;
52798;SDS011;38667;42.872;74.622;2023-08-08T08:22:21;2.75;;;1.30;;
52798;SDS011;38667;42.872;74.622;2023-08-08T08:24:47;7.38;;;1.58;;
52798;SDS011;38667;42.872;74.622;2023-08-08T08:27:13;3.33;;;1.30;;
52798;SDS011;38667;42.872;74.622;2023-08-08T08:29:40;5.95;;;1.25;;
52798;SDS011;38667;42.872;74.622;2023-08-08T08:32:06;6.25;;;1.40;;
52798;SDS011;38667;42.872;74.622;2023-08-08T08:34:34;5.38;;;1.17;;
52798;SDS011;38667;42.872;74.622;2023-08-08T08:37:00;3.83;;;0.93;;
52798;SDS011;38667;42.872;74.622;2023-08-08T08:39:26;5.68;;;1.20;;
52798;SDS011;38667;42.872;74.622;2023-08-08T08:41:54;4.63;;;0.90;;
52798;SDS011;38667;42.872;74.622;2023-08-08T08:44:23;2.28;;;0.95;;
52798;SDS011;38667;42.872;74.622;2023-08-08T08:46:51;6.78;;;0.95;;
52798;SDS011;38667;42.872;74.622;2023-08-08T08:49:18;4.53;;;0.90;;
52798;SDS011;38667;42.872;74.622;2023-08-08T08:51:49;3.00;;;0.93;;
52798;SDS011;38667;42.872;74.622;2023-08-08T08:54:16;2.30;;;0.82;;
52798;SDS011;38667;42.872;74.622;2023-08-08T08:56:42;3.20;;;0.80;;
52798;SDS011;38667;42.872;74.622;2023-08-08T08:59:09;4.65;;;0.80;;
52798;SDS011;38667;42.872;74.622;2023-08-08T09:01:35;2.08;;;0.70;;
52798;SDS011;38667;42.872;74.622;2023-08-08T09:04:02;3.42;;;1.08;;
52798;SDS011;38667;42.872;74.622;2023-08-08T09:06:30;4.03;;;0.90;;
52798;SDS011;38667;42.872;74.622;2023-08-08T09:08:59;5.32;;;1.13;;
52798;SDS011;38667;42.872;74.622;2023-08-08T09:11:25;7.22;;;1.27;;
52798;SDS011;38667;42.872;74.622;2023-08-08T09:13:51;3.17;;;1.08;;
52798;SDS011;38667;42.872;74.622;2023-08-08T09:16:18;6.80;;;1.27;;
52798;SDS011;38667;42.872;74.622;2023-08-08T09:18:44;1.90;;;1.40;;
52798;SDS011;38667;42.872;74.622;2023-08-08T09:21:11;3.40;;;1.25;;
52798;SDS011;38667;42.872;74.622;2023-08-08T09:23:38;4.32;;;1.10;;
52798;SDS011;38667;42.872;74.622;2023-08-08T09:26:06;6.05;;;1.20;;
52798;SDS011;38667;42.872;74.622;2023-08-08T09:28:32;2.53;;;1.30;;
52798;SDS011;38667;42.872;74.622;2023-08-08T09:30:59;3.25;;;1.00;;
52798;SDS011;38667;42.872;74.622;2023-08-08T09:33:28;1.10;;;0.93;;
52798;SDS011;38667;42.872;74.622;2023-08-08T09:35:54;1.98;;;0.95;;
52798;SDS011;38667;42.872;74.622;2023-08-08T09:38:21;1.95;;;1.08;;
52798;SDS011;38667;42.872;74.622;2023-08-08T09:40:47;2.10;;;1.05;;
52798;SDS011;38667;42.872;74.622;2023-08-08T09:43:16;1.88;;;1.00;;
52798;SDS011;38667;42.872;74.622;2023-08-08T09:45:42;1.73;;;1.00;;
52798;SDS011;38667;42.872;74.622;2023-08-08T09:48:09;2.83;;;0.85;;
52798;SDS011;38667;42.872;74.622;2023-08-08T09:50:35;1.55;;;1.00;;
52798;SDS011;38667;42.872;74.622;2023-08-08T09:53:02;3.67;;;1.00;;
52798;SDS011;38667;42.872;74.622;2023-08-08T09:55:29;2.47;;;1.05;;
52798;SDS011;38667;42.872;74.622;2023-08-08T09:57:57;1.90;;;1.00;;
52798;SDS011;38667;42.872;74.622;2023-08-08T10:00:25;5.10;;;1.10;;
52798;SDS011;38667;42.872;74.622;2023-08-08T10:02:52;3.63;;;1.10;;
52798;SDS011;38667;42.872;74.622;2023-08-08T10:05:19;5.28;;;1.27;;
52798;SDS011;38667;42.872;74.622;2023-08-08T10:07:47;3.03;;;1.25;;
52798;SDS011;38667;42.872;74.622;2023-08-08T10:10:14;2.97;;;1.10;;
52798;SDS011;38667;42.872;74.622;2023-08-08T10:12:41;2.42;;;1.08;;
52798;SDS011;38667;42.872;74.622;2023-08-08T10:15:08;1.70;;;1.05;;
52798;SDS011;38667;42.872;74.622;2023-08-08T10:17:37;2.15;;;1.20;;
52798;SDS011;38667;42.872;74.622;2023-08-08T10:20:04;2.25;;;1.13;;
52798;SDS011;38667;42.872;74.622;2023-08-08T10:22:33;4.60;;;1.63;;
52798;SDS011;38667;42.872;74.622;2023-08-08T10:24:59;7.00;;;1.60;;
52798;SDS011;38667;42.872;74.622;2023-08-08T10:27:31;7.22;;;1.50;;
52798;SDS011;38667;42.872;74.622;2023-08-08T10:30:00;7.30;;;1.58;;
52798;SDS011;38667;42.872;74.622;2023-08-08T10:32:28;2.92;;;1.42;;
52798;SDS011;38667;42.872;74.622;2023-08-08T10:35:05;6.25;;;1.77;;
52798;SDS011;38667;42.872;74.622;2023-08-08T10:37:32;3.00;;;1.20;;
52798;SDS011;38667;42.872;74.622;2023-08-08T10:39:58;1.65;;;1.15;;
52798;SDS011;38667;42.872;74.622;2023-08-08T10:42:26;3.95;;;1.20;;
52798;SDS011;38667;42.872;74.622;2023-08-08T10:44:54;3.03;;;1.20;;
52798;SDS011;38667;42.872;74.622;2023-08-08T10:47:21;3.78;;;1.58;;
52798;SDS011;38667;42.872;74.622;2023-08-08T10:49:56;4.53;;;1.40;;
52798;SDS011;38667;42.872;74.622;2023-08-08T10:52:25;5.68;;;1.52;;
52798;SDS011;38667;42.872;74.622;2023-08-08T10:54:52;3.70;;;1.55;;
52798;SDS011;38667;42.872;74.622;2023-08-08T10:57:18;4.13;;;1.50;;
52798;SDS011;38667;42.872;74.622;2023-08-08T10:59:45;4.90;;;1.50;;
52798;SDS011;38667;42.872;74.622;2023-08-08T11:02:12;3.45;;;1.33;;
52798;SDS011;38667;42.872;74.622;2023-08-08T11:04:39;2.00;;;1.00;;
52798;SDS011;38667;42.872;74.622;2023-08-08T11:07:06;2.92;;;1.10;;
52798;SDS011;38667;42.872;74.622;2023-08-08T11:09:34;6.28;;;1.50;;
52798;SDS011;38667;42.872;74.622;2023-08-08T11:12:01;5.18;;;1.30;;
52798;SDS011;38667;42.872;74.622;2023-08-08T11:14:27;5.57;;;1.35;;
52798;SDS011;38667;42.872;74.622;2023-08-08T11:16:54;4.80;;;1.42;;
52798;SDS011;38667;42.872;74.622;2023-08-08T11:19:20;6.05;;;1.83;;
52798;SDS011;38667;42.872;74.622;2023-08-08T11:21:47;5.10;;;1.52;;
52798;SDS011;38667;42.872;74.622;2023-08-08T11:24:14;3.33;;;1.40;;
52798;SDS011;38667;42.872;74.622;2023-08-08T11:26:42;4.47;;;1.63;;
52798;SDS011;38667;42.872;74.622;2023-08-08T11:29:09;3.38;;;1.60;;
52798;SDS011;38667;42.872;74.622;2023-08-08T11:31:36;2.45;;;1.48;;
52798;SDS011;38667;42.872;74.622;2023-08-08T11:34:03;5.43;;;1.42;;
52798;SDS011;38667;42.872;74.622;2023-08-08T11:36:30;7.05;;;1.92;;
52798;SDS011;38667;42.872;74.622;2023-08-08T11:38:58;2.55;;;1.65;;
52798;SDS011;38667;42.872;74.622;2023-08-08T11:41:27;4.13;;;1.77;;
52798;SDS011;38667;42.872;74.622;2023-08-08T11:43:55;5.50;;;1.50;;
52798;SDS011;38667;42.872;74.622;2023-08-08T11:46:22;2.92;;;1.73;;
52798;SDS011;38667;42.872;74.622;2023-08-08T11:48:49;5.22;;;1.65;;
52798;SDS011;38667;42.872;74.622;2023-08-08T11:51:15;4.32;;;2.13;;
52798;SDS011;38667;42.872;74.622;2023-08-08T11:53:48;3.55;;;1.90;;
52798;SDS011;38667;42.872;74.622;2023-08-08T11:56:15;5.47;;;2.03;;
52798;SDS011;38667;42.872;74.622;2023-08-08T11:58:41;4.57;;;2.03;;
52798;SDS011;38667;42.872;74.622;2023-08-08T12:01:09;5.72;;;1.90;;
52798;SDS011;38667;42.872;74.622;2023-08-08T12:03:36;3.63;;;1.60;;
52798;SDS011;38667;42.872;74.622;2023-08-08T12:06:03;5.50;;;1.60;;
52798;SDS011;38667;42.872;74.622;2023-08-08T12:08:37;3.80;;;1.70;;
52798;SDS011;38667;42.872;74.622;2023-08-08T12:11:05;6.15;;;2.22;;
52798;SDS011;38667;42.872;74.622;2023-08-08T12:13:33;3.90;;;2.30;;
52798;SDS011;38667;42.872;74.622;2023-08-08T12:16:01;2.80;;;1.55;;
52798;SDS011;38667;42.872;74.622;2023-08-08T12:18:31;3.90;;;2.03;;
52798;SDS011;38667;42.872;74.622;2023-08-08T12:20:57;5.18;;;1.80;;
52798;SDS011;38667;42.872;74.622;2023-08-08T12:23:23;7.45;;;3.00;;
52798;SDS011;38667;42.872;74.622;2023-08-08T12:25:51;4.68;;;2.20;;
52798;SDS011;38667;42.872;74.622;2023-08-08T12:28:17;7.93;;;2.70;;
52798;SDS011;38667;42.872;74.622;2023-08-08T12:30:44;8.77;;;2.90;;
52798;SDS011;38667;42.872;74.622;2023-08-08T12:33:10;10.30;;;3.25;;
52798;SDS011;38667;42.872;74.622;2023-08-08T12:35:38;5.18;;;3.15;;
52798;SDS011;38667;42.872;74.622;2023-08-08T12:38:04;7.95;;;2.83;;
52798;SDS011;38667;42.872;74.622;2023-08-08T12:40:31;10.68;;;2.85;;
52798;SDS011;38667;42.872;74.622;2023-08-08T12:42:57;4.97;;;2.90;;
52798;SDS011;38667;42.872;74.622;2023-08-08T12:45:23;5.45;;;3.05;;
52798;SDS011;38667;42.872;74.622;2023-08-08T12:47:50;14.00;;;3.65;;
52798;SDS011;38667;42.872;74.622;2023-08-08T12:50:16;12.00;;;4.93;;
52798;SDS011;38667;42.872;74.622;2023-08-08T12:52:44;8.52;;;5.43;;
52798;SDS011;38667;42.872;74.622;2023-08-08T12:55:10;7.78;;;3.80;;
52798;SDS011;38667;42.872;74.622;2023-08-08T12:57:37;7.05;;;3.28;;
52798;SDS011;38667;42.872;74.622;2023-08-08T13:00:03;6.72;;;2.88;;
52798;SDS011;38667;42.872;74.622;2023-08-08T13:02:30;9.88;;;3.08;;
52798;SDS011;38667;42.872;74.622;2023-08-08T13:04:57;8.65;;;2.50;;
52798;SDS011;38667;42.872;74.622;2023-08-08T13:07:24;6.00;;;2.47;;
52798;SDS011;38667;42.872;74.622;2023-08-08T13:09:52;3.97;;;2.58;;
52798;SDS011;38667;42.872;74.622;2023-08-08T13:12:18;4.60;;;2.78;;
52798;SDS011;38667;42.872;74.622;2023-08-08T13:14:44;6.07;;;2.15;;
52798;SDS011;38667;42.872;74.622;2023-08-08T13:17:10;6.35;;;2.05;;
52798;SDS011;38667;42.872;74.622;2023-08-08T13:19:37;3.28;;;1.85;;
52798;SDS011;38667;42.872;74.622;2023-08-08T13:22:03;5.20;;;2.53;;
52798;SDS011;38667;42.872;74.622;2023-08-08T13:24:29;5.30;;;2.10;;
52798;SDS011;38667;42.872;74.622;2023-08-08T13:26:57;5.65;;;3.00;;
52798;SDS011;38667;42.872;74.622;2023-08-08T13:29:24;6.75;;;2.70;;
52798;SDS011;38667;42.872;74.622;2023-08-08T13:31:50;7.22;;;3.00;;
52798;SDS011;38667;42.872;74.622;2023-08-08T13:34:17;7.25;;;4.30;;
52798;SDS011;38667;42.872;74.622;2023-08-08T13:36:43;8.15;;;4.28;;
52798;SDS011;38667;42.872;74.622;2023-08-08T13:39:09;8.88;;;4.60;;
52798;SDS011;38667;42.872;74.622;2023-08-08T13:41:36;7.97;;;4.28;;
52798;SDS011;38667;42.872;74.622;2023-08-08T13:44:04;10.75;;;3.83;;
52798;SDS011;38667;42.872;74.622;2023-08-08T13:46:30;10.65;;;3.53;;
52798;SDS011;38667;42.872;74.622;2023-08-08T13:48:57;9.52;;;3.83;;
52798;SDS011;38667;42.872;74.622;2023-08-08T13:51:23;7.47;;;3.38;;
52798;SDS011;38667;42.872;74.622;2023-08-08T13:53:49;7.18;;;3.78;;
52798;SDS011;38667;42.872;74.622;2023-08-08T13:56:16;7.70;;;3.45;;
52798;SDS011;38667;42.872;74.622;2023-08-08T13:58:43;7.28;;;3.28;;
52798;SDS011;38667;42.872;74.622;2023-08-08T14:01:11;8.00;;;3.95;;
52798;SDS011;38667;42.872;74.622;2023-08-08T14:03:37;15.18;;;3.70;;
52798;SDS011;38667;42.872;74.622;2023-08-08T14:06:04;9.85;;;4.20;;
52798;SDS011;38667;42.872;74.622;2023-08-08T14:08:30;16.35;;;4.10;;
52798;SDS011;38667;42.872;74.622;2023-08-08T14:10:56;12.98;;;4.13;;
52798;SDS011;38667;42.872;74.622;2023-08-08T14:13:22;17.83;;;4.22;;
52798;SDS011;38667;42.872;74.622;2023-08-08T14:15:49;13.05;;;4.00;;
52798;SDS011;38667;42.872;74.622;2023-08-08T14:18:17;13.25;;;4.15;;
52798;SDS011;38667;42.872;74.622;2023-08-08T14:20:44;13.10;;;4.25;;
52798;SDS011;38667;42.872;74.622;2023-08-08T14:23:10;10.52;;;4.13;;
52798;SDS011;38667;42.872;74.622;2023-08-08T14:25:36;15.85;;;3.63;;
52798;SDS011;38667;42.872;74.622;2023-08-08T14:28:03;16.88;;;3.92;;
52798;SDS011;38667;42.872;74.622;2023-08-08T14:30:29;11.35;;;4.00;;